Hico, Texas
Current Conditions -  °F | °C
As of 11:35 AM on Thursday 23 Oct 2014 (Local Time) from KSEP Reporting Station
Broken Clouds Broken Clouds  
Wind Chill: 72°   Ceiling: 9000
Heat Index: 72°   Visibility: 10mi
Dew Point: 59°   Wind: 0mph
Humidity: 64%   Direction: NA
Pressure: 30.19"   Gusts: NA
Location:  31.98°N, 98.03°W
Report Text: KSEP 231635Z AUTO 00000KT 10SM SCT055 BKN090 22/15 A3019 RMK AO2 T02220150
Loading
Personal Weather Stations






























Interactive Weather Map
Tropical Storm Tracking
New forecast layout! Learn more

10-Day Weather Forecast

Advertisements
Track Severe Weather on mobile